createdAt,value
2022-12-03T00:00:35.813Z,56.60
2022-12-03T00:03:20.692Z,55.40
2022-12-03T00:05:49.510Z,59.50
2022-12-03T00:08:17.995Z,52.70
2022-12-03T00:10:47.082Z,51.80
2022-12-03T00:13:15.425Z,55.70
2022-12-03T00:15:43.729Z,57.00
2022-12-03T00:18:12.773Z,55.20
2022-12-03T00:20:41.169Z,55.70
2022-12-03T00:23:09.406Z,57.30
2022-12-03T00:25:37.663Z,56.40
2022-12-03T00:28:06.053Z,54.60
2022-12-03T00:30:34.405Z,54.10
2022-12-03T00:33:02.560Z,56.40
2022-12-03T00:35:30.848Z,56.10
2022-12-03T00:37:59.149Z,50.60
2022-12-03T00:40:27.343Z,55.00
2022-12-03T00:42:55.690Z,59.00
2022-12-03T00:45:23.937Z,51.60
2022-12-03T00:47:52.289Z,50.60
2022-12-03T00:50:20.670Z,54.50
2022-12-03T00:52:50.113Z,51.30
2022-12-03T00:55:18.384Z,55.10
2022-12-03T00:57:47.280Z,55.60
2022-12-03T01:00:16.057Z,53.90
2022-12-03T01:02:44.415Z,52.70
2022-12-03T01:05:12.888Z,56.30
2022-12-03T01:07:41.241Z,55.20
2022-12-03T01:10:10.097Z,54.40
2022-12-03T01:12:38.504Z,56.70
2022-12-03T01:15:07.533Z,56.50
2022-12-03T01:17:37.003Z,57.60
2022-12-03T01:20:06.635Z,54.10
2022-12-03T01:22:35.936Z,54.30
2022-12-03T01:25:04.528Z,51.90
2022-12-03T01:27:32.812Z,51.40
2022-12-03T01:30:01.079Z,51.80
2022-12-03T01:32:29.259Z,53.50
2022-12-03T01:34:57.592Z,52.90
2022-12-03T01:37:27.180Z,54.90
2022-12-03T01:39:55.587Z,53.80
2022-12-03T01:42:35.869Z,54.60
2022-12-03T01:45:04.699Z,55.70
2022-12-03T01:47:38.113Z,51.80
2022-12-03T01:50:26.039Z,51.80
2022-12-03T01:52:57.481Z,50.00
2022-12-03T01:55:26.537Z,51.60
2022-12-03T01:58:01.292Z,52.60
2022-12-03T02:00:31.048Z,54.10
2022-12-03T02:03:11.617Z,52.50
2022-12-03T02:05:39.958Z,53.80
2022-12-03T02:08:34.967Z,53.70
2022-12-03T02:11:14.562Z,54.70
2022-12-03T02:13:44.378Z,52.90
2022-12-03T02:16:12.662Z,54.50
2022-12-03T02:18:41.749Z,52.90
2022-12-03T02:21:24.056Z,54.30
2022-12-03T02:24:22.139Z,57.50
2022-12-03T02:26:50.677Z,55.80
2022-12-03T02:29:19.006Z,53.80
2022-12-03T02:31:47.366Z,54.60
2022-12-03T02:34:39.247Z,54.20
2022-12-03T02:37:12.767Z,54.30
2022-12-03T02:39:44.693Z,55.20
2022-12-03T02:42:33.048Z,49.20
2022-12-03T02:45:24.352Z,57.80
2022-12-03T02:48:02.828Z,52.20
2022-12-03T02:50:38.056Z,49.10
2022-12-03T02:55:37.718Z,50.20
2022-12-03T02:58:07.442Z,54.60
2022-12-03T03:00:36.247Z,51.60
2022-12-03T03:03:06.964Z,54.30
2022-12-03T03:05:38.368Z,54.80
2022-12-03T03:08:09.049Z,58.80
2022-12-03T03:10:40.584Z,54.30
2022-12-03T03:13:15.947Z,51.70
2022-12-03T03:15:44.677Z,52.50
2022-12-03T03:18:15.727Z,58.00
2022-12-03T03:20:45.344Z,55.50
2022-12-03T03:23:19.348Z,54.40
2022-12-03T03:26:03.102Z,54.20
2022-12-03T03:28:34.723Z,54.90
2022-12-03T03:31:05.493Z,54.80
2022-12-03T03:33:35.112Z,57.30
2022-12-03T03:36:03.585Z,56.90
2022-12-03T03:38:33.166Z,57.70
2022-12-03T03:41:03.881Z,58.60
2022-12-03T03:43:35.024Z,58.40
2022-12-03T03:46:05.577Z,55.80
2022-12-03T03:48:35.481Z,54.00
2022-12-03T03:51:09.754Z,56.20
2022-12-03T03:53:43.033Z,57.00
2022-12-03T03:56:12.099Z,57.10
2022-12-03T03:58:40.676Z,50.70
2022-12-03T04:01:09.582Z,53.20
2022-12-03T04:03:37.978Z,51.80
2022-12-03T04:06:06.692Z,55.20
2022-12-03T04:08:34.963Z,57.40
2022-12-03T04:11:22.359Z,57.40
2022-12-03T04:13:51.539Z,55.30
2022-12-03T04:16:19.887Z,61.00
2022-12-03T04:18:48.804Z,59.10
2022-12-03T04:21:38.725Z,59.80
2022-12-03T04:24:09.901Z,51.00
2022-12-03T04:26:57.478Z,59.70
2022-12-03T04:29:25.762Z,55.20
2022-12-03T04:32:12.544Z,62.20
2022-12-03T04:34:59.266Z,58.40
2022-12-03T04:37:27.622Z,59.00
2022-12-03T04:39:56.024Z,55.10
2022-12-03T04:42:24.249Z,60.10
2022-12-03T04:44:52.911Z,58.10
2022-12-03T04:47:22.572Z,61.10
2022-12-03T04:49:51.754Z,65.30
2022-12-03T04:52:21.310Z,59.30
2022-12-03T04:54:49.638Z,59.80
2022-12-03T04:57:18.077Z,56.60
2022-12-03T04:59:46.460Z,57.80
2022-12-03T05:02:14.884Z,53.10
2022-12-03T05:04:44.264Z,57.30
2022-12-03T05:07:12.544Z,55.00
2022-12-03T05:09:40.848Z,52.50
2022-12-03T05:12:09.112Z,57.90
2022-12-03T05:14:37.352Z,59.40
2022-12-03T05:17:05.663Z,63.50
2022-12-03T05:19:52.448Z,61.40
2022-12-03T05:22:20.761Z,61.80
2022-12-03T05:24:49.013Z,63.10
2022-12-03T05:27:23.164Z,61.90
2022-12-03T05:29:53.111Z,55.70
2022-12-03T05:32:21.450Z,54.40
2022-12-03T05:34:49.715Z,61.00
2022-12-03T05:37:18.093Z,58.80
2022-12-03T05:39:46.377Z,57.10
2022-12-03T05:42:33.128Z,53.20
2022-12-03T05:45:01.523Z,55.70
2022-12-03T05:47:30.024Z,56.70
2022-12-03T05:49:58.722Z,57.60
2022-12-03T05:52:27.057Z,60.60
2022-12-03T05:54:56.048Z,63.30
2022-12-03T05:57:24.713Z,62.20
2022-12-03T05:59:53.033Z,60.50
2022-12-03T06:02:21.358Z,59.70
2022-12-03T06:04:50.521Z,57.30
2022-12-03T06:07:19.140Z,59.80
2022-12-03T06:09:47.400Z,63.70
2022-12-03T06:12:15.671Z,64.90
2022-12-03T06:14:44.012Z,59.60
2022-12-03T06:17:12.212Z,61.40
2022-12-03T06:19:40.469Z,58.70
2022-12-03T06:22:08.787Z,60.50
2022-12-03T06:24:37.089Z,58.30
2022-12-03T06:27:05.554Z,59.90
2022-12-03T06:29:33.904Z,63.20
2022-12-03T06:32:03.794Z,58.10
2022-12-03T06:34:32.223Z,65.10
2022-12-03T06:37:01.095Z,57.70
2022-12-03T06:39:29.534Z,60.20
2022-12-03T06:41:57.880Z,66.80
2022-12-03T06:44:26.224Z,60.30
2022-12-03T06:46:54.620Z,62.80
2022-12-03T06:49:23.050Z,64.00
2022-12-03T06:51:51.295Z,61.70
2022-12-03T06:54:19.546Z,64.40
2022-12-03T06:56:47.811Z,56.30
2022-12-03T06:59:16.115Z,59.80
2022-12-03T07:01:44.380Z,63.80
2022-12-03T07:04:12.824Z,52.20
2022-12-03T07:06:41.172Z,54.20
2022-12-03T07:09:09.447Z,50.50
2022-12-03T07:11:40.890Z,55.60
2022-12-03T07:14:11.515Z,55.80
2022-12-03T07:16:40.330Z,52.50
2022-12-03T07:19:10.127Z,54.60
2022-12-03T07:21:38.467Z,53.40
2022-12-03T07:24:06.949Z,53.70
2022-12-03T07:26:35.175Z,53.50
2022-12-03T07:29:03.711Z,51.90
2022-12-03T07:31:32.108Z,55.00
2022-12-03T07:34:00.371Z,52.70
2022-12-03T07:36:28.658Z,50.90
2022-12-03T07:38:56.960Z,52.70
2022-12-03T07:41:25.243Z,52.60
2022-12-03T07:43:53.571Z,54.70
2022-12-03T07:46:21.890Z,51.60
2022-12-03T07:48:50.263Z,52.80
2022-12-03T07:51:18.596Z,46.90
2022-12-03T07:53:46.860Z,48.90
2022-12-03T07:56:15.080Z,48.70
2022-12-03T07:58:43.408Z,48.60
2022-12-03T08:01:11.895Z,49.70
2022-12-03T08:03:42.902Z,50.70
2022-12-03T08:06:11.342Z,50.10
2022-12-03T08:08:39.635Z,52.10
2022-12-03T08:11:14.417Z,45.50
2022-12-03T08:13:42.735Z,45.40
2022-12-03T08:16:20.238Z,48.00
2022-12-03T08:18:50.183Z,48.70
2022-12-03T08:21:20.863Z,50.90
2022-12-03T08:23:49.332Z,50.20
2022-12-03T08:26:23.178Z,52.50
2022-12-03T08:28:53.347Z,52.00
2022-12-03T08:31:32.983Z,51.60
2022-12-03T08:34:27.423Z,59.40
2022-12-03T08:37:06.147Z,65.00
2022-12-03T08:39:38.040Z,53.30
2022-12-03T08:42:37.196Z,53.90
2022-12-03T08:45:35.499Z,51.10
2022-12-03T08:48:29.992Z,51.70
2022-12-03T08:51:09.006Z,52.20
2022-12-03T08:53:42.477Z,56.80
2022-12-03T08:56:24.183Z,54.10
2022-12-03T08:58:57.728Z,52.70
2022-12-03T09:01:32.988Z,53.60
2022-12-03T09:06:54.864Z,54.30
2022-12-03T09:09:24.985Z,55.30
2022-12-03T09:11:54.437Z,49.90
2022-12-03T09:14:23.769Z,49.90
2022-12-03T09:16:56.156Z,47.90
2022-12-03T09:19:26.926Z,53.10
2022-12-03T09:21:55.204Z,48.00
2022-12-03T09:24:23.865Z,54.10
2022-12-03T09:26:52.284Z,51.30
2022-12-03T09:29:20.523Z,53.30
2022-12-03T09:31:48.899Z,53.90
2022-12-03T09:34:17.328Z,57.40
2022-12-03T09:36:45.637Z,52.60
2022-12-03T09:39:13.928Z,53.00
2022-12-03T09:41:44.475Z,55.30
2022-12-03T09:44:17.669Z,53.80
2022-12-03T09:46:47.975Z,48.80
2022-12-03T09:49:20.140Z,48.00
2022-12-03T09:51:48.423Z,52.20
2022-12-03T09:54:24.306Z,52.50
2022-12-03T09:56:55.532Z,51.40
2022-12-03T09:59:29.810Z,52.30
2022-12-03T10:01:59.079Z,51.30
2022-12-03T10:04:29.048Z,53.80
2022-12-03T10:06:59.110Z,52.90
2022-12-03T10:09:29.415Z,52.90
2022-12-03T10:12:00.006Z,53.10
2022-12-03T10:14:28.756Z,49.80
2022-12-03T10:16:57.074Z,47.00
2022-12-03T10:19:31.911Z,46.50
2022-12-03T10:22:00.272Z,50.80
2022-12-03T10:24:31.239Z,45.30
2022-12-03T10:27:05.186Z,52.40
2022-12-03T10:29:36.056Z,54.10
2022-12-03T10:32:07.751Z,50.40
2022-12-03T10:34:39.179Z,50.10
2022-12-03T10:37:18.346Z,46.50
2022-12-03T10:40:10.958Z,52.70
2022-12-03T10:42:41.204Z,54.90
2022-12-03T10:45:19.044Z,53.90
2022-12-03T10:48:11.028Z,51.20
2022-12-03T10:50:49.107Z,47.50
2022-12-03T10:53:19.214Z,50.50
2022-12-03T10:55:51.544Z,49.30
2022-12-03T10:58:25.825Z,43.10
2022-12-03T11:00:56.614Z,60.00
2022-12-03T11:03:31.198Z,82.30
2022-12-03T11:06:01.449Z,55.40
2022-12-03T11:08:34.765Z,47.30
2022-12-03T11:11:13.624Z,55.80
2022-12-03T11:13:41.740Z,58.20
2022-12-03T11:16:10.244Z,51.70
2022-12-03T11:18:38.567Z,51.30
2022-12-03T11:21:06.996Z,50.20
2022-12-03T11:23:44.248Z,50.30
2022-12-03T11:26:28.882Z,51.70
2022-12-03T11:28:58.997Z,54.10
2022-12-03T11:31:46.756Z,61.60
2022-12-03T11:34:18.220Z,59.90
2022-12-03T11:37:11.447Z,54.80
2022-12-03T11:39:52.966Z,57.80
2022-12-03T11:42:27.630Z,59.20
2022-12-03T11:45:11.118Z,57.60
2022-12-03T11:47:44.101Z,51.90
2022-12-03T11:50:23.193Z,57.30
2022-12-03T11:53:17.235Z,57.90
2022-12-03T11:55:52.376Z,56.80
2022-12-03T11:58:25.749Z,57.40
2022-12-03T12:01:02.655Z,53.30
2022-12-03T12:03:35.540Z,57.60
2022-12-03T12:06:05.500Z,55.50
2022-12-03T12:08:36.841Z,60.20
2022-12-03T12:11:20.353Z,56.90
2022-12-03T12:13:49.483Z,56.50
2022-12-03T12:16:39.268Z,56.50
2022-12-03T12:19:31.048Z,57.30
2022-12-03T12:22:25.301Z,55.10
2022-12-03T12:24:55.868Z,54.30
2022-12-03T12:27:45.285Z,49.30
2022-12-03T12:30:16.337Z,50.80
2022-12-03T12:32:48.085Z,57.60
2022-12-03T12:35:21.286Z,56.50
2022-12-03T12:38:00.152Z,59.80
2022-12-03T12:40:32.073Z,58.20
2022-12-03T12:43:10.028Z,54.80
2022-12-03T12:45:43.668Z,60.50
2022-12-03T12:48:22.628Z,57.10
2022-12-03T12:51:13.569Z,68.60
2022-12-03T12:53:43.162Z,63.00
2022-12-03T12:56:32.766Z,61.90
2022-12-03T12:59:16.676Z,60.30
2022-12-03T13:01:47.059Z,57.10
2022-12-03T13:04:21.466Z,54.50
2022-12-03T13:06:53.999Z,54.30
2022-12-03T13:09:25.069Z,55.10
2022-12-03T13:11:58.490Z,54.70
2022-12-03T13:14:33.213Z,56.50
2022-12-03T13:17:11.405Z,54.90
2022-12-03T13:19:48.322Z,57.40
2022-12-03T13:22:22.085Z,51.20
2022-12-03T13:24:52.654Z,50.80
2022-12-03T13:27:26.171Z,53.20
2022-12-03T13:29:59.100Z,54.40
2022-12-03T13:32:38.491Z,55.10
2022-12-03T13:35:35.799Z,53.90
2022-12-03T13:38:14.496Z,57.70
2022-12-03T13:40:42.852Z,51.00
2022-12-03T13:43:15.878Z,52.80
2022-12-03T13:45:47.295Z,53.50
2022-12-03T13:48:29.091Z,55.60
2022-12-03T13:51:00.891Z,52.20
2022-12-03T13:53:40.227Z,53.50
2022-12-03T13:56:29.101Z,49.60
2022-12-03T13:59:00.443Z,50.80
2022-12-03T14:01:28.997Z,49.00
2022-12-03T14:03:57.358Z,50.50
2022-12-03T14:06:25.682Z,52.50
2022-12-03T14:08:54.788Z,56.10
2022-12-03T14:11:41.653Z,48.80
2022-12-03T14:14:09.952Z,49.20
2022-12-03T14:16:38.189Z,51.40
2022-12-03T14:19:06.948Z,56.80
2022-12-03T14:21:35.226Z,57.10
2022-12-03T14:24:03.656Z,53.20
2022-12-03T14:26:31.940Z,54.10
2022-12-03T14:29:03.413Z,49.40
2022-12-03T14:31:34.375Z,52.40
2022-12-03T14:34:02.710Z,58.40
2022-12-03T14:36:30.933Z,61.70
2022-12-03T14:38:59.176Z,61.30
2022-12-03T14:41:45.968Z,60.30
2022-12-03T14:44:14.249Z,60.40
2022-12-03T14:46:42.606Z,53.30
2022-12-03T14:49:10.843Z,57.30
2022-12-03T14:51:39.070Z,60.90
2022-12-03T14:54:07.950Z,57.70
2022-12-03T14:56:36.371Z,58.90
2022-12-03T14:59:04.541Z,60.50
2022-12-03T15:01:32.840Z,67.00
2022-12-03T15:04:01.199Z,65.50
2022-12-03T15:06:29.436Z,79.70
2022-12-03T15:08:57.749Z,73.70
2022-12-03T15:11:25.996Z,67.80
2022-12-03T15:13:54.372Z,68.70
2022-12-03T15:16:23.848Z,74.90
2022-12-03T15:18:52.175Z,85.70
2022-12-03T15:21:20.413Z,91.00
2022-12-03T15:23:48.803Z,71.70
2022-12-03T15:26:17.266Z,72.20
2022-12-03T15:28:48.404Z,78.80
2022-12-03T15:31:17.250Z,75.30
2022-12-03T15:33:45.519Z,89.40
2022-12-03T15:36:13.769Z,79.70
2022-12-03T15:38:42.058Z,80.10
2022-12-03T15:41:29.408Z,76.70
2022-12-03T15:44:01.660Z,82.70
2022-12-03T15:46:31.767Z,72.90
2022-12-03T15:49:00.306Z,73.30
2022-12-03T15:51:28.496Z,73.00
2022-12-03T15:53:56.781Z,75.00
2022-12-03T15:56:25.027Z,85.70
2022-12-03T15:58:53.948Z,86.50
2022-12-03T16:01:22.267Z,79.20
2022-12-03T16:03:50.603Z,80.80
2022-12-03T16:06:19.714Z,78.30
2022-12-03T16:08:48.587Z,69.40
2022-12-03T16:11:16.929Z,82.30
2022-12-03T16:13:45.244Z,72.00
2022-12-03T16:16:13.661Z,76.00
2022-12-03T16:18:44.198Z,73.00
2022-12-03T16:21:12.481Z,71.60
2022-12-03T16:23:40.708Z,70.80
2022-12-03T16:26:08.988Z,74.10
2022-12-03T16:28:37.231Z,74.00
2022-12-03T16:31:05.791Z,76.60
2022-12-03T16:33:34.218Z,79.20
2022-12-03T16:36:04.123Z,87.30
2022-12-03T16:38:33.943Z,84.20
2022-12-03T16:41:02.362Z,84.20
2022-12-03T16:43:30.767Z,71.80
2022-12-03T16:46:03.135Z,71.00
2022-12-03T16:48:31.645Z,77.80
2022-12-03T16:50:59.815Z,69.00
2022-12-03T16:53:28.078Z,78.70
2022-12-03T16:55:56.435Z,83.10
2022-12-03T16:58:25.314Z,74.70
2022-12-03T17:00:54.773Z,75.60
2022-12-03T17:03:23.249Z,75.50
2022-12-03T17:05:51.563Z,72.10
2022-12-03T17:08:19.891Z,74.30
2022-12-03T17:10:48.489Z,78.40
2022-12-03T17:13:16.858Z,70.00
2022-12-03T17:15:46.735Z,61.80
2022-12-03T17:18:15.616Z,70.10
2022-12-03T17:20:43.893Z,72.00
2022-12-03T17:23:12.735Z,76.10
2022-12-03T17:25:41.022Z,66.50
2022-12-03T17:28:09.309Z,71.10
2022-12-03T17:30:39.201Z,66.80
2022-12-03T17:33:07.614Z,61.40
2022-12-03T17:35:35.901Z,60.20
2022-12-03T17:38:04.090Z,66.50
2022-12-03T17:40:32.367Z,66.30
2022-12-03T17:43:00.606Z,60.10
2022-12-03T17:45:29.021Z,62.50
2022-12-03T17:47:57.324Z,82.30
2022-12-03T17:50:26.495Z,72.30
2022-12-03T17:52:54.796Z,70.70
2022-12-03T17:55:31.927Z,67.20
2022-12-03T17:58:06.438Z,67.20
2022-12-03T18:00:34.812Z,67.40
2022-12-03T18:03:03.537Z,62.80
2022-12-03T18:05:31.827Z,65.80
2022-12-03T18:08:00.316Z,82.60
2022-12-03T18:10:28.675Z,96.30
2022-12-03T18:13:01.413Z,75.20
2022-12-03T18:15:31.077Z,65.30
2022-12-03T18:17:59.329Z,65.00
2022-12-03T18:20:28.225Z,63.00
2022-12-03T18:22:59.448Z,66.50
2022-12-03T18:25:29.309Z,75.00
2022-12-03T18:27:58.157Z,78.20
2022-12-03T18:30:26.492Z,74.40
2022-12-03T18:32:55.330Z,75.00
2022-12-03T18:35:23.857Z,73.10
2022-12-03T18:37:52.158Z,68.30
2022-12-03T18:40:23.642Z,66.80
2022-12-03T18:42:51.954Z,75.60
2022-12-03T18:45:20.842Z,80.40
2022-12-03T18:47:49.379Z,77.00
2022-12-03T18:50:17.837Z,79.40
2022-12-03T18:52:46.987Z,82.90
2022-12-03T18:55:19.326Z,93.00
2022-12-03T18:57:47.644Z,99.70
2022-12-03T19:00:16.566Z,103.80
2022-12-03T19:05:35.404Z,95.50
2022-12-03T19:08:04.885Z,100.30
2022-12-03T19:10:33.219Z,92.50
2022-12-03T19:13:03.844Z,83.90
2022-12-03T19:15:32.188Z,88.90
2022-12-03T19:18:00.572Z,78.80
2022-12-03T19:20:28.914Z,87.50
2022-12-03T19:22:57.199Z,88.70
2022-12-03T19:25:25.507Z,86.30
2022-12-03T19:27:55.269Z,91.70
2022-12-03T19:30:23.615Z,89.80
2022-12-03T19:32:52.278Z,78.50
2022-12-03T19:35:21.589Z,68.20
2022-12-03T19:37:50.031Z,63.20
2022-12-03T19:40:18.708Z,67.90
2022-12-03T19:42:47.031Z,79.60
2022-12-03T19:45:15.261Z,75.20
2022-12-03T19:47:43.775Z,75.00
2022-12-03T19:50:22.688Z,85.70
2022-12-03T19:52:51.963Z,83.10
2022-12-03T19:55:20.253Z,89.70
2022-12-03T19:57:49.496Z,83.90
2022-12-03T20:00:18.098Z,90.40
2022-12-03T20:02:49.423Z,79.80
2022-12-03T20:05:19.453Z,80.60
2022-12-03T20:07:48.348Z,80.80
2022-12-03T20:10:16.743Z,78.30
2022-12-03T20:12:45.155Z,79.60
2022-12-03T20:15:14.342Z,73.40
2022-12-03T20:17:42.718Z,79.50
2022-12-03T20:20:11.999Z,77.70
2022-12-03T20:22:43.326Z,84.00
2022-12-03T20:25:13.756Z,76.20
2022-12-03T20:27:46.324Z,78.60
2022-12-03T20:30:14.784Z,74.50
2022-12-03T20:32:45.610Z,82.40
2022-12-03T20:35:14.380Z,76.70
2022-12-03T20:37:42.591Z,74.80
2022-12-03T20:40:11.361Z,75.60
2022-12-03T20:42:39.892Z,85.40
2022-12-03T20:45:08.754Z,88.70
2022-12-03T20:47:38.093Z,90.00
2022-12-03T20:50:08.254Z,93.30
2022-12-03T20:52:36.800Z,88.60
2022-12-03T20:55:05.369Z,82.40
2022-12-03T20:57:34.254Z,82.80
2022-12-03T21:00:02.538Z,77.80
2022-12-03T21:02:31.158Z,85.60
2022-12-03T21:04:59.709Z,84.20
2022-12-03T21:07:28.044Z,84.60
2022-12-03T21:09:57.719Z,89.90
2022-12-03T21:12:27.263Z,81.60
2022-12-03T21:14:55.540Z,86.20
2022-12-03T21:17:23.900Z,88.90
2022-12-03T21:19:52.551Z,80.50
2022-12-03T21:22:21.219Z,86.70
2022-12-03T21:24:49.661Z,80.60
2022-12-03T21:27:21.623Z,88.10
2022-12-03T21:29:50.876Z,84.80
2022-12-03T21:32:19.293Z,95.10
2022-12-03T21:34:47.495Z,93.20
2022-12-03T21:37:15.745Z,90.10
2022-12-03T21:39:44.086Z,97.80
2022-12-03T21:42:34.153Z,96.70
2022-12-03T21:45:00.755Z,93.60
2022-12-03T21:47:33.476Z,100.00
2022-12-03T21:50:08.036Z,102.40
2022-12-03T21:52:36.581Z,97.20
2022-12-03T21:55:06.464Z,99.00
2022-12-03T21:57:36.580Z,97.40
2022-12-03T22:00:07.933Z,101.20
2022-12-03T22:02:40.282Z,102.80
2022-12-03T22:05:10.161Z,105.50
2022-12-03T22:07:39.981Z,98.20
2022-12-03T22:10:11.077Z,101.70
2022-12-03T22:12:41.050Z,98.20
2022-12-03T22:15:16.572Z,94.10
2022-12-03T22:17:47.906Z,96.70
2022-12-03T22:20:16.515Z,98.30
2022-12-03T22:22:44.846Z,94.10
2022-12-03T22:25:13.190Z,91.20
2022-12-03T22:27:41.628Z,98.60
2022-12-03T22:30:10.074Z,101.20
2022-12-03T22:32:38.387Z,102.60
2022-12-03T22:35:07.007Z,101.60
2022-12-03T22:37:35.264Z,102.40
2022-12-03T22:40:04.215Z,101.30
2022-12-03T22:42:32.566Z,104.20
2022-12-03T22:45:00.796Z,100.30
2022-12-03T22:47:29.088Z,98.60
2022-12-03T22:49:57.460Z,102.00
2022-12-03T22:52:26.012Z,103.30
2022-12-03T22:54:54.319Z,100.60
2022-12-03T22:57:22.801Z,99.70
2022-12-03T22:59:51.105Z,100.00
2022-12-03T23:02:19.443Z,107.50
2022-12-03T23:04:47.763Z,102.50
2022-12-03T23:07:15.994Z,102.90
2022-12-03T23:09:44.302Z,100.20
2022-12-03T23:12:14.832Z,94.70
2022-12-03T23:14:43.153Z,95.90
2022-12-03T23:17:11.434Z,90.40
2022-12-03T23:19:39.656Z,93.70
2022-12-03T23:22:07.881Z,88.50
2022-12-03T23:24:36.584Z,91.20
2022-12-03T23:27:04.848Z,81.90
2022-12-03T23:29:35.268Z,89.90
2022-12-03T23:32:03.673Z,85.20
2022-12-03T23:34:32.026Z,81.20
2022-12-03T23:37:00.301Z,74.50
2022-12-03T23:39:28.645Z,85.60
2022-12-03T23:41:56.875Z,79.10
2022-12-03T23:44:27.172Z,80.90
2022-12-03T23:46:55.588Z,81.00
2022-12-03T23:49:23.855Z,74.50
2022-12-03T23:51:52.106Z,79.20
2022-12-03T23:54:20.459Z,72.60
2022-12-03T23:56:48.764Z,75.90
2022-12-03T23:59:16.999Z,73.20
